createdAt,value
2018-09-02T00:00:54.572Z,11.40
2018-09-02T00:03:22.737Z,11.20
2018-09-02T00:05:50.873Z,11.20
2018-09-02T00:08:19.030Z,11.20
2018-09-02T00:10:47.212Z,11.00
2018-09-02T00:13:15.744Z,11.10
2018-09-02T00:15:43.964Z,11.10
2018-09-02T00:18:12.120Z,11.10
2018-09-02T00:20:40.466Z,11.10
2018-09-02T00:23:08.608Z,11.20
2018-09-02T00:25:37.274Z,11.20
2018-09-02T00:28:05.896Z,11.30
2018-09-02T00:30:34.049Z,11.50
2018-09-02T00:33:03.261Z,11.60
2018-09-02T00:35:31.410Z,11.50
2018-09-02T00:37:59.611Z,11.40
2018-09-02T00:40:27.787Z,11.30
2018-09-02T00:42:57.199Z,11.40
2018-09-02T00:45:25.352Z,11.40
2018-09-02T00:47:53.841Z,11.50
2018-09-02T00:50:22.438Z,11.40
2018-09-02T00:52:50.626Z,11.40
2018-09-02T00:55:18.799Z,11.20
2018-09-02T00:57:47.288Z,11.10
2018-09-02T01:00:15.469Z,11.10
2018-09-02T01:02:43.692Z,11.10
2018-09-02T01:05:12.226Z,11.20
2018-09-02T01:07:40.363Z,11.20
2018-09-02T01:10:08.580Z,11.20
2018-09-02T01:12:37.290Z,10.80
2018-09-02T01:15:05.795Z,10.60
2018-09-02T01:17:33.987Z,10.50
2018-09-02T01:20:03.704Z,10.60
2018-09-02T01:22:32.828Z,10.70
2018-09-02T01:25:00.989Z,10.70
2018-09-02T01:27:29.166Z,10.60
2018-09-02T01:29:57.294Z,10.60
2018-09-02T01:32:25.463Z,10.70
2018-09-02T01:34:53.667Z,10.70
2018-09-02T01:37:21.853Z,10.60
2018-09-02T01:39:50.066Z,10.60
2018-09-02T01:42:18.775Z,10.70
2018-09-02T01:44:46.897Z,10.80
2018-09-02T01:47:15.111Z,10.70
2018-09-02T01:49:43.279Z,10.60
2018-09-02T01:52:11.453Z,10.60
2018-09-02T01:54:39.589Z,10.60
2018-09-02T01:57:08.403Z,10.60
2018-09-02T01:59:36.674Z,10.60
2018-09-02T02:02:05.093Z,10.70
2018-09-02T02:04:38.790Z,10.70
2018-09-02T02:07:06.996Z,10.70
2018-09-02T02:09:35.154Z,10.80
2018-09-02T02:12:04.055Z,10.90
2018-09-02T02:14:32.230Z,11.00
2018-09-02T02:17:00.633Z,10.90
2018-09-02T02:19:28.850Z,10.80
2018-09-02T02:21:56.976Z,10.80
2018-09-02T02:24:25.200Z,10.70
2018-09-02T02:26:53.365Z,10.70
2018-09-02T02:29:22.417Z,10.80
2018-09-02T02:31:50.604Z,10.70
2018-09-02T02:34:18.799Z,10.60
2018-09-02T02:36:47.003Z,10.40
2018-09-02T02:39:16.214Z,10.60
2018-09-02T02:41:44.430Z,10.60
2018-09-02T02:44:12.652Z,10.60
2018-09-02T02:46:41.072Z,10.60
2018-09-02T02:49:09.297Z,10.50
2018-09-02T02:51:37.465Z,10.50
2018-09-02T02:54:06.001Z,10.40
2018-09-02T02:56:34.168Z,10.40
2018-09-02T02:59:04.785Z,10.50
2018-09-02T03:01:32.964Z,10.40
2018-09-02T03:04:01.861Z,10.40
2018-09-02T03:06:30.065Z,10.50
2018-09-02T03:08:58.707Z,10.40
2018-09-02T03:11:27.640Z,10.40
2018-09-02T03:13:55.812Z,10.50
2018-09-02T03:16:24.169Z,10.60
2018-09-02T03:18:52.668Z,10.60
2018-09-02T03:21:44.125Z,10.70
2018-09-02T03:24:13.393Z,10.60
2018-09-02T03:26:41.574Z,10.60
2018-09-02T03:29:09.737Z,10.60
2018-09-02T03:31:37.910Z,10.70
2018-09-02T03:34:06.054Z,10.60
2018-09-02T03:36:34.234Z,10.70
2018-09-02T03:39:05.097Z,10.90
2018-09-02T03:41:33.217Z,10.90
2018-09-02T03:44:01.412Z,10.90
2018-09-02T03:46:29.996Z,10.70
2018-09-02T03:48:58.165Z,10.60
2018-09-02T03:51:26.307Z,10.60
2018-09-02T03:53:54.454Z,10.60
2018-09-02T03:56:22.605Z,10.60
2018-09-02T03:58:50.749Z,10.60
2018-09-02T04:01:19.533Z,10.60
2018-09-02T04:03:47.726Z,10.70
2018-09-02T04:06:16.525Z,10.60
2018-09-02T04:08:44.754Z,10.60
2018-09-02T04:11:13.026Z,10.60
2018-09-02T04:13:41.188Z,10.60
2018-09-02T04:16:09.698Z,10.60
2018-09-02T04:18:38.464Z,10.60
2018-09-02T04:21:06.693Z,10.70
2018-09-02T04:23:34.868Z,10.70
2018-09-02T04:26:04.573Z,10.70
2018-09-02T04:28:33.512Z,10.90
2018-09-02T04:31:01.816Z,11.00
2018-09-02T04:33:29.981Z,11.00
2018-09-02T04:35:58.740Z,11.10
2018-09-02T04:38:27.848Z,11.20
2018-09-02T04:40:56.046Z,11.20
2018-09-02T04:43:24.252Z,11.30
2018-09-02T04:45:52.448Z,11.50
2018-09-02T04:48:20.872Z,11.50
2018-09-02T04:50:49.072Z,11.50
2018-09-02T04:53:18.096Z,11.50
2018-09-02T04:55:46.290Z,11.50
2018-09-02T04:58:14.538Z,11.50
2018-09-02T05:00:42.658Z,11.80
2018-09-02T05:03:10.864Z,11.90
2018-09-02T05:05:39.624Z,11.80
2018-09-02T05:08:08.785Z,11.80
2018-09-02T05:10:36.977Z,11.80
2018-09-02T05:13:05.159Z,11.70
2018-09-02T05:15:33.362Z,11.80
2018-09-02T05:18:01.587Z,11.80
2018-09-02T05:20:29.740Z,11.80
2018-09-02T05:22:57.905Z,11.70
2018-09-02T05:25:26.064Z,11.60
2018-09-02T05:27:54.255Z,11.80
2018-09-02T05:30:22.454Z,11.90
2018-09-02T05:32:50.659Z,11.90
2018-09-02T05:35:18.789Z,11.90
2018-09-02T05:37:46.982Z,11.90
2018-09-02T05:40:15.160Z,12.00
2018-09-02T05:42:43.350Z,12.00
2018-09-02T05:45:11.510Z,12.20
2018-09-02T05:47:39.688Z,12.30
2018-09-02T05:50:08.465Z,12.40
2018-09-02T05:52:36.620Z,12.40
2018-09-02T05:55:05.165Z,12.50
2018-09-02T05:57:33.354Z,12.60
2018-09-02T06:00:02.009Z,12.70
2018-09-02T06:02:30.181Z,12.80
2018-09-02T06:04:58.312Z,13.10
2018-09-02T06:07:26.676Z,13.20
2018-09-02T06:09:55.421Z,13.10
2018-09-02T06:12:23.564Z,13.10
2018-09-02T06:14:52.070Z,13.20
2018-09-02T06:17:20.290Z,13.10
2018-09-02T06:19:48.425Z,13.00
2018-09-02T06:22:16.599Z,13.20
2018-09-02T06:24:44.773Z,13.30
2018-09-02T06:27:12.925Z,13.30
2018-09-02T06:29:41.121Z,13.20
2018-09-02T06:32:09.313Z,13.20
2018-09-02T06:34:37.463Z,13.30
2018-09-02T06:37:05.646Z,13.50
2018-09-02T06:39:33.898Z,13.80
2018-09-02T06:42:01.973Z,14.00
2018-09-02T06:44:30.114Z,14.20
2018-09-02T06:46:59.666Z,14.30
2018-09-02T06:49:27.825Z,14.30
2018-09-02T06:51:56.001Z,14.40
2018-09-02T06:54:24.118Z,14.50
2018-09-02T06:56:52.360Z,14.60
2018-09-02T06:59:20.513Z,14.60
2018-09-02T07:01:48.676Z,14.60
2018-09-02T07:04:17.706Z,14.60
2018-09-02T07:06:45.923Z,14.70
2018-09-02T07:09:14.022Z,14.80
2018-09-02T07:11:42.483Z,14.80
2018-09-02T07:14:10.655Z,15.20
2018-09-02T07:16:39.793Z,15.50
2018-09-02T07:19:07.994Z,16.20
2018-09-02T07:21:36.877Z,16.60
2018-09-02T07:24:05.005Z,16.60
2018-09-02T07:26:33.869Z,16.70
2018-09-02T07:29:02.573Z,16.60
2018-09-02T07:31:31.186Z,16.70
2018-09-02T07:33:59.266Z,16.90
2018-09-02T07:36:27.472Z,17.00
2018-09-02T07:38:55.637Z,16.80
2018-09-02T07:41:23.836Z,16.60
2018-09-02T07:43:52.156Z,16.60
2018-09-02T07:46:20.220Z,16.90
2018-09-02T07:48:48.360Z,16.30
2018-09-02T07:51:16.563Z,15.70
2018-09-02T07:53:44.976Z,15.50
2018-09-02T07:56:13.169Z,15.30
2018-09-02T07:58:41.352Z,15.50
2018-09-02T08:01:09.548Z,15.70
2018-09-02T08:03:37.878Z,15.70
2018-09-02T08:06:05.996Z,15.80
2018-09-02T08:08:34.233Z,16.30
2018-09-02T08:11:02.693Z,16.20
2018-09-02T08:13:31.170Z,16.40
2018-09-02T08:15:59.353Z,16.90
2018-09-02T08:18:27.549Z,17.20
2018-09-02T08:20:55.932Z,17.60
2018-09-02T08:23:24.630Z,18.10
2018-09-02T08:25:52.776Z,17.90
2018-09-02T08:28:21.002Z,18.40
2018-09-02T08:30:49.187Z,18.30
2018-09-02T08:33:17.383Z,17.90
2018-09-02T08:35:45.532Z,17.60
2018-09-02T08:38:13.731Z,17.60
2018-09-02T08:40:41.931Z,17.80
2018-09-02T08:43:10.137Z,17.90
2018-09-02T08:45:38.333Z,18.10
2018-09-02T08:48:06.489Z,18.80
2018-09-02T08:50:34.733Z,19.70
2018-09-02T08:53:02.836Z,20.30
2018-09-02T08:55:31.006Z,19.90
2018-09-02T08:57:59.436Z,20.00
2018-09-02T09:00:27.557Z,20.00
2018-09-02T09:02:55.780Z,19.60
2018-09-02T09:05:23.985Z,19.30
2018-09-02T09:07:52.334Z,19.60
2018-09-02T09:10:20.862Z,19.60
2018-09-02T09:12:49.316Z,19.30
2018-09-02T09:15:17.493Z,19.20
2018-09-02T09:17:45.698Z,18.70
2018-09-02T09:20:13.939Z,18.20
2018-09-02T09:22:42.696Z,17.90
2018-09-02T09:25:11.284Z,18.00
2018-09-02T09:27:40.005Z,18.40
2018-09-02T09:30:08.937Z,18.50
2018-09-02T09:32:37.091Z,18.60
2018-09-02T09:35:05.337Z,18.60
2018-09-02T09:37:33.552Z,18.70
2018-09-02T09:40:01.788Z,18.60
2018-09-02T09:42:29.963Z,18.20
2018-09-02T09:44:58.109Z,18.00
2018-09-02T09:47:26.329Z,17.80
2018-09-02T09:49:54.495Z,17.70
2018-09-02T09:52:22.736Z,17.70
2018-09-02T09:54:50.922Z,17.70
2018-09-02T09:57:19.417Z,17.80
2018-09-02T09:59:47.561Z,17.70
2018-09-02T10:02:15.740Z,17.70
2018-09-02T10:04:43.910Z,17.50
2018-09-02T10:07:12.325Z,17.40
2018-09-02T10:09:40.518Z,17.50
2018-09-02T10:12:08.706Z,17.40
2018-09-02T10:14:37.224Z,17.20
2018-09-02T10:17:05.378Z,17.00
2018-09-02T10:19:33.605Z,17.00
2018-09-02T10:22:01.764Z,16.90
2018-09-02T10:24:29.904Z,17.00
2018-09-02T10:26:58.127Z,17.00
2018-09-02T10:29:26.905Z,17.00
2018-09-02T10:31:55.104Z,17.00
2018-09-02T10:34:23.850Z,17.00
2018-09-02T10:36:52.017Z,17.10
2018-09-02T10:39:23.924Z,17.10
2018-09-02T10:41:52.073Z,17.10
2018-09-02T10:44:20.272Z,17.20
2018-09-02T10:46:48.465Z,17.30
2018-09-02T10:49:16.648Z,17.30
2018-09-02T10:51:44.801Z,17.30
2018-09-02T10:54:19.619Z,17.30
2018-09-02T10:56:47.809Z,17.30
2018-09-02T10:59:15.956Z,17.30
2018-09-02T11:01:44.148Z,17.10
2018-09-02T11:04:13.187Z,17.10
2018-09-02T11:06:42.233Z,17.20
2018-09-02T11:09:11.518Z,17.20
2018-09-02T11:11:40.483Z,17.10
2018-09-02T11:14:09.300Z,17.20
2018-09-02T11:16:37.548Z,17.10
2018-09-02T11:19:06.135Z,17.20
2018-09-02T11:21:34.432Z,17.20
2018-09-02T11:24:03.446Z,17.20
2018-09-02T11:26:31.599Z,17.20
2018-09-02T11:28:59.785Z,17.30
2018-09-02T11:31:27.973Z,17.30
2018-09-02T11:33:56.143Z,17.40
2018-09-02T11:36:25.202Z,17.50
2018-09-02T11:38:53.409Z,17.60
2018-09-02T11:41:23.228Z,17.60
2018-09-02T11:43:51.438Z,17.50
2018-09-02T11:46:19.616Z,17.50
2018-09-02T11:48:47.818Z,17.50
2018-09-02T11:51:16.001Z,17.40
2018-09-02T11:53:44.205Z,17.60
2018-09-02T11:56:13.069Z,17.70
2018-09-02T11:58:42.925Z,17.90
2018-09-02T12:01:11.118Z,18.00
2018-09-02T12:03:40.925Z,18.00
2018-09-02T12:06:09.119Z,17.90
2018-09-02T12:08:37.710Z,17.80
2018-09-02T12:11:05.951Z,17.80
2018-09-02T12:13:34.130Z,18.00
2018-09-02T12:16:02.909Z,18.20
2018-09-02T12:18:31.412Z,18.30
2018-09-02T12:21:00.082Z,18.30
2018-09-02T12:23:28.211Z,18.30
2018-09-02T12:25:57.671Z,18.50
2018-09-02T12:28:26.177Z,18.60
2018-09-02T12:30:55.250Z,18.70
2018-09-02T12:33:23.407Z,18.60
2018-09-02T12:35:51.590Z,18.70
2018-09-02T12:38:19.817Z,18.70
2018-09-02T12:40:48.016Z,19.00
2018-09-02T12:43:16.265Z,19.00
2018-09-02T12:45:45.029Z,18.90
2018-09-02T12:48:13.194Z,18.70
2018-09-02T12:50:41.362Z,18.80
2018-09-02T12:53:09.511Z,18.80
2018-09-02T12:55:37.880Z,18.70
2018-09-02T12:58:05.961Z,18.90
2018-09-02T13:00:34.700Z,18.90
2018-09-02T13:03:04.517Z,18.80
2018-09-02T13:05:32.728Z,18.80
2018-09-02T13:08:01.664Z,18.90
2018-09-02T13:10:29.837Z,19.00
2018-09-02T13:12:58.010Z,19.10
2018-09-02T13:15:26.274Z,19.30
2018-09-02T13:17:54.366Z,19.30
2018-09-02T13:20:22.557Z,19.10
2018-09-02T13:22:50.751Z,18.90
2018-09-02T13:25:19.169Z,18.80
2018-09-02T13:27:47.789Z,18.70
2018-09-02T13:30:15.976Z,18.70
2018-09-02T13:32:44.198Z,18.50
2018-09-02T13:35:12.369Z,18.10
2018-09-02T13:37:40.564Z,18.20
2018-09-02T13:40:09.208Z,18.30
2018-09-02T13:42:37.405Z,18.10
2018-09-02T13:45:06.633Z,18.10
2018-09-02T13:47:34.837Z,18.20
2018-09-02T13:50:03.010Z,18.20
2018-09-02T13:52:32.786Z,17.90
2018-09-02T13:55:00.960Z,17.80
2018-09-02T13:57:29.431Z,17.60
2018-09-02T13:59:57.620Z,17.50
2018-09-02T14:02:25.784Z,17.30
2018-09-02T14:04:53.979Z,17.30
2018-09-02T14:07:22.145Z,17.20
2018-09-02T14:09:50.322Z,17.20
2018-09-02T14:12:18.555Z,17.20
2018-09-02T14:14:47.029Z,17.20
2018-09-02T14:17:15.216Z,17.30
2018-09-02T14:19:43.472Z,17.30
2018-09-02T14:22:11.577Z,17.30
2018-09-02T14:24:40.661Z,17.40
2018-09-02T14:27:08.816Z,17.40
2018-09-02T14:29:37.752Z,17.30
2018-09-02T14:32:06.616Z,17.40
2018-09-02T14:34:34.773Z,17.30
2018-09-02T14:37:03.485Z,17.40
2018-09-02T14:39:31.642Z,17.50
2018-09-02T14:41:59.833Z,17.50
2018-09-02T14:44:29.709Z,17.40
2018-09-02T14:46:57.916Z,17.40
2018-09-02T14:49:27.069Z,17.50
2018-09-02T14:51:55.218Z,17.60
2018-09-02T14:54:23.810Z,17.60
2018-09-02T14:56:52.076Z,17.50
2018-09-02T14:59:20.625Z,17.40
2018-09-02T15:01:48.830Z,17.30
2018-09-02T15:04:17.054Z,17.30
2018-09-02T15:06:46.586Z,17.40
2018-09-02T15:09:15.520Z,17.50
2018-09-02T15:11:44.574Z,17.60
2018-09-02T15:14:12.753Z,17.60
2018-09-02T15:16:40.898Z,17.60
2018-09-02T15:19:09.146Z,17.50
2018-09-02T15:21:37.345Z,17.50
2018-09-02T15:24:05.662Z,17.50
2018-09-02T15:26:33.850Z,17.40
2018-09-02T15:29:02.399Z,17.50
2018-09-02T15:31:30.613Z,17.50
2018-09-02T15:33:58.764Z,17.50
2018-09-02T15:36:26.993Z,17.40
2018-09-02T15:38:55.410Z,17.30
2018-09-02T15:41:24.546Z,17.20
2018-09-02T15:43:52.735Z,17.20
2018-09-02T15:46:20.946Z,17.20
2018-09-02T15:48:49.615Z,17.20
2018-09-02T15:51:17.821Z,17.20
2018-09-02T15:53:46.600Z,17.20
2018-09-02T15:56:14.800Z,17.20
2018-09-02T15:58:42.961Z,17.20
2018-09-02T16:01:11.192Z,17.10
2018-09-02T16:03:40.081Z,17.10
2018-09-02T16:06:08.284Z,17.10
2018-09-02T16:08:36.537Z,17.20
2018-09-02T16:11:04.744Z,17.20
2018-09-02T16:13:32.926Z,17.20
2018-09-02T16:16:02.532Z,17.20
2018-09-02T16:18:30.706Z,17.20
2018-09-02T16:20:59.606Z,17.20
2018-09-02T16:23:27.764Z,17.10
2018-09-02T16:25:56.003Z,17.00
2018-09-02T16:28:24.150Z,17.00
2018-09-02T16:30:53.301Z,17.00
2018-09-02T16:33:21.488Z,17.00
2018-09-02T16:35:49.679Z,17.00
2018-09-02T16:38:17.844Z,17.00
2018-09-02T16:40:45.994Z,17.10
2018-09-02T16:43:14.162Z,16.90
2018-09-02T16:45:42.800Z,16.80
2018-09-02T16:48:10.937Z,16.80
2018-09-02T16:50:40.017Z,16.70
2018-09-02T16:53:08.852Z,16.60
2018-09-02T16:55:37.332Z,16.60
2018-09-02T16:58:05.962Z,16.50
2018-09-02T17:00:34.124Z,16.40
2018-09-02T17:03:02.825Z,16.40
2018-09-02T17:05:31.600Z,16.30
2018-09-02T17:07:59.772Z,16.30
2018-09-02T17:10:27.893Z,16.20
2018-09-02T17:12:56.771Z,16.20
2018-09-02T17:15:24.831Z,16.10
2018-09-02T17:17:52.974Z,16.00
2018-09-02T17:20:26.303Z,16.10
2018-09-02T17:22:59.404Z,16.10
2018-09-02T17:25:27.546Z,16.00
2018-09-02T17:27:55.723Z,16.00
2018-09-02T17:30:23.882Z,16.00
2018-09-02T17:32:52.073Z,15.90
2018-09-02T17:35:20.299Z,15.90
2018-09-02T17:37:48.472Z,15.80
2018-09-02T17:40:16.662Z,15.80
2018-09-02T17:42:44.922Z,15.70
2018-09-02T17:45:13.070Z,15.80
2018-09-02T17:47:41.942Z,15.80
2018-09-02T17:50:10.184Z,15.70
2018-09-02T17:52:38.388Z,15.80
2018-09-02T17:55:06.546Z,15.80
2018-09-02T17:57:34.755Z,15.70
2018-09-02T18:00:03.285Z,15.70
2018-09-02T18:02:31.555Z,15.60
2018-09-02T18:05:00.074Z,15.50
2018-09-02T18:07:28.273Z,15.60
2018-09-02T18:09:56.784Z,15.60
2018-09-02T18:12:25.287Z,15.50
2018-09-02T18:14:53.482Z,15.40
2018-09-02T18:17:21.659Z,15.50
2018-09-02T18:19:49.860Z,15.50
2018-09-02T18:22:18.097Z,15.50
2018-09-02T18:24:47.955Z,15.40
2018-09-02T18:27:17.900Z,15.40
2018-09-02T18:29:50.306Z,15.40
2018-09-02T18:32:18.462Z,15.50
2018-09-02T18:34:47.175Z,15.40
2018-09-02T18:37:15.369Z,15.40
2018-09-02T18:39:43.945Z,15.40
2018-09-02T18:42:12.036Z,15.30
2018-09-02T18:44:40.245Z,15.30
2018-09-02T18:47:08.413Z,15.20
2018-09-02T18:49:36.564Z,15.20
2018-09-02T18:52:05.821Z,15.20
2018-09-02T18:54:34.809Z,15.20
2018-09-02T18:57:03.553Z,15.30
2018-09-02T18:59:31.724Z,15.20
2018-09-02T19:01:59.884Z,15.20
2018-09-02T19:04:28.071Z,15.10
2018-09-02T19:06:56.621Z,15.10
2018-09-02T19:09:24.827Z,15.00
2018-09-02T19:11:52.988Z,15.00
2018-09-02T19:14:21.125Z,15.00
2018-09-02T19:16:49.284Z,15.00
2018-09-02T19:19:17.423Z,15.00
2018-09-02T19:21:45.597Z,15.00
2018-09-02T19:24:13.819Z,15.00
2018-09-02T19:26:42.337Z,15.00
2018-09-02T19:29:10.553Z,15.00
2018-09-02T19:31:38.763Z,15.00
2018-09-02T19:34:06.948Z,15.10
2018-09-02T19:36:36.552Z,15.10
2018-09-02T19:39:07.620Z,15.10
2018-09-02T19:41:35.820Z,15.00
2018-09-02T19:44:04.636Z,15.00
2018-09-02T19:46:32.761Z,15.00
2018-09-02T19:49:00.941Z,15.10
2018-09-02T19:51:29.093Z,15.10
2018-09-02T19:53:57.236Z,15.00
2018-09-02T19:56:25.369Z,14.90
2018-09-02T19:58:53.569Z,14.90
2018-09-02T20:01:22.915Z,14.90
2018-09-02T20:03:51.097Z,15.10
2018-09-02T20:06:19.351Z,15.10
2018-09-02T20:08:48.425Z,15.00
2018-09-02T20:11:16.609Z,15.10
2018-09-02T20:13:44.766Z,15.00
2018-09-02T20:16:13.885Z,15.00
2018-09-02T20:18:42.083Z,15.00
2018-09-02T20:21:10.915Z,15.10
2018-09-02T20:23:39.071Z,15.10
2018-09-02T20:26:07.294Z,15.10
2018-09-02T20:28:35.476Z,15.00
2018-09-02T20:31:03.874Z,15.00
2018-09-02T20:33:32.020Z,15.00
2018-09-02T20:36:00.213Z,15.00
2018-09-02T20:38:28.961Z,15.00
2018-09-02T20:40:57.120Z,15.00
2018-09-02T20:43:25.302Z,15.00
2018-09-02T20:45:53.441Z,14.90
2018-09-02T20:48:22.000Z,15.00
2018-09-02T20:50:50.233Z,14.90
2018-09-02T20:53:18.417Z,14.90
2018-09-02T20:55:46.589Z,14.90
2018-09-02T20:58:14.792Z,14.90
2018-09-02T21:00:42.985Z,14.80
2018-09-02T21:03:11.192Z,14.90
2018-09-02T21:05:39.377Z,14.80
2018-09-02T21:08:07.571Z,14.90
2018-09-02T21:10:36.265Z,14.80
2018-09-02T21:13:04.490Z,14.80
2018-09-02T21:15:32.696Z,14.90
2018-09-02T21:18:00.957Z,14.90
2018-09-02T21:20:29.115Z,14.90
2018-09-02T21:22:57.269Z,14.90
2018-09-02T21:25:25.456Z,14.90
2018-09-02T21:27:53.617Z,14.80
2018-09-02T21:30:22.677Z,14.80
2018-09-02T21:32:50.878Z,14.80
2018-09-02T21:35:19.023Z,14.90
2018-09-02T21:37:47.179Z,14.90
2018-09-02T21:40:15.326Z,14.90
2018-09-02T21:42:44.605Z,14.90
2018-09-02T21:45:13.448Z,14.80
2018-09-02T21:47:42.197Z,14.80
2018-09-02T21:50:11.170Z,15.00
2018-09-02T21:52:39.384Z,14.90
2018-09-02T21:55:08.713Z,14.90
2018-09-02T21:57:36.852Z,15.00
2018-09-02T22:00:07.640Z,15.00
2018-09-02T22:02:36.121Z,15.00
2018-09-02T22:05:04.441Z,15.00
2018-09-02T22:07:32.660Z,15.10
2018-09-02T22:10:01.761Z,15.10
2018-09-02T22:12:29.912Z,15.10
2018-09-02T22:14:58.094Z,15.10
2018-09-02T22:17:26.366Z,15.00
2018-09-02T22:19:55.168Z,15.00
2018-09-02T22:22:24.027Z,15.00
2018-09-02T22:24:52.195Z,15.10
2018-09-02T22:27:20.325Z,15.10
2018-09-02T22:29:48.500Z,15.00
2018-09-02T22:32:16.664Z,15.00
2018-09-02T22:34:44.912Z,15.00
2018-09-02T22:37:13.069Z,15.00
2018-09-02T22:39:41.221Z,15.10
2018-09-02T22:42:09.400Z,15.20
2018-09-02T22:44:37.588Z,15.40
2018-09-02T22:47:06.025Z,15.50
2018-09-02T22:49:34.172Z,15.70
2018-09-02T22:52:02.745Z,15.80
2018-09-02T22:54:30.971Z,15.80
2018-09-02T22:56:59.142Z,15.70
2018-09-02T22:59:27.373Z,15.50
2018-09-02T23:01:56.259Z,15.30
2018-09-02T23:04:24.437Z,15.30
2018-09-02T23:06:52.629Z,15.30
2018-09-02T23:09:20.803Z,15.30
2018-09-02T23:11:49.258Z,15.30
2018-09-02T23:14:17.414Z,15.30
2018-09-02T23:16:45.564Z,15.20
2018-09-02T23:19:13.722Z,15.00
2018-09-02T23:21:41.903Z,14.90
2018-09-02T23:24:10.128Z,14.80
2018-09-02T23:26:38.325Z,14.90
2018-09-02T23:29:06.573Z,14.90
2018-09-02T23:31:34.729Z,14.80
2018-09-02T23:34:03.574Z,14.60
2018-09-02T23:36:32.746Z,14.60
2018-09-02T23:39:00.933Z,14.40
2018-09-02T23:41:29.098Z,14.40
2018-09-02T23:43:57.645Z,14.50
2018-09-02T23:46:26.309Z,14.60
2018-09-02T23:48:54.473Z,14.60
2018-09-02T23:51:22.660Z,14.50
2018-09-02T23:53:50.848Z,14.40
2018-09-02T23:56:20.389Z,14.50
2018-09-02T23:58:48.590Z,14.40
